Aeroporto :
LOGIN :

Iscrizione | Disclaimer

   EN    FR    IT 

 










Sommario :    VFR   VFR Marginale   IFR   IFR Intensivo   IFR Molto Intensivo
Visibilità : 
Base nubi : 
>= 8 km
>= 3000ft
5 / 8 km
1000 / 3000 ft
1500m / 5 km
500 / 1000 ft
800 / 1500m
200 / 500 ft
< 800m
< 200 ft
Simboli :   Temporali  Nebbia  Neve Forte  Precipitazioni Forti  Vento > 20 kt
SIGMETs :   Varie  Temporali  Ghiacco  Turbolenza  Onda orograficha  Ceneri Vulcaniche






- Altitudine del aeroporto : 33 ft
- Codice IATA : MHZ


EGUN - RAF Mildenhall

ULTIMO METAR :
  • 011358Z 28005KT 9999 BKN050 08/01 A3015 RMK AO2A SLP211 WND DATA ESTMD ALSTG/SLP ESTMD RVRNO

METARs OBSOLETI :
  • 011259Z 29004KT 9999 BKN050 09/01 A3017 RMK AO2A SLP232 WND DATA ESTMD ALSTG/SLP ESTMD RVRNO
  • 011156Z 26006KT 9999 BKN050 08/01 A3009 RMK AO2A SLP232 WND DATA ESTMD ALSTG/SLP ESTMD RVRNO

TAF TAF EGUN
Valido dal 01 a 12 ore il 02 a 18 ore UTC


011200Z 0112/0218 27012KT 9999 BKN030 QNH3012INS
BECMG 0117/0118 27009KT 9999 BKN025 QNH3003INS
BECMG 0206/0207 27012G20KT 9999 BKN020 QNH2989INS TX12/0212Z TN01/0205Z



MetMap, La meteo Aeronautica in un colpo d'occhio ! - Copyright ORBIFLY Dicembre 2007 - Disclaimer

ORBIFLY MET'MAP TEAM :

Programmazione e sviluppo : Alexandra Zaïnal
Concezione : Baudouin d'Aumeries
Aiuto per la programmazione : Marc-Olivier Méhu
Supporto tecnico e logistico : Manuel Goepfert
Aiuto per la traduzione : Arnaldo La Scala

Contatto : metmap@orbifly.com




FONTI E CREDITI :

   NOAA